Time;durP1;ratioP1;P1;durP2;ratioP2;P2;SDS_P1;SDS_P2;PMS_P1;PMS_P2;Temp;Humidity;BMP_temperature;BMP_pressure;BME280_temperature;BME280_humidity;BME280_pressure;Samples;Min_cycle;Max_cycle;Signal;HPM_P1;HPM_P2
2023/07/04 00:01:25;;;;;;;5.80;5.30;;;;;;;16.32;100.00;95679.25;4989186;28;20023;-79
2023/07/04 00:03:53;;;;;;;8.07;5.80;;;;;;;16.48;100.00;95725.25;4989439;28;20044;-78
2023/07/04 00:06:19;;;;;;;5.78;5.28;;;;;;;16.57;100.00;95729.38;4989416;28;20022;-78
2023/07/04 00:08:45;;;;;;;6.60;6.00;;;;;;;16.17;100.00;95760.34;5004563;28;20084;-78
2023/07/04 00:11:11;;;;;;;6.05;5.32;;;;;;;16.00;100.00;95795.53;5005614;28;20084;-80
2023/07/04 00:13:38;;;;;;;6.30;5.78;;;;;;;16.03;100.00;95863.09;5004480;28;20105;-79
2023/07/04 00:16:10;;;;;;;5.82;5.25;;;;;;;16.25;100.00;95856.94;5004776;28;20053;-78
2023/07/04 00:18:38;;;;;;;6.95;5.43;;;;;;;16.21;100.00;95839.22;4990652;28;20033;-79
2023/07/04 00:21:07;;;;;;;5.72;5.20;;;;;;;16.23;100.00;95822.34;4987814;28;20459;-78
2023/07/04 00:23:35;;;;;;;6.50;5.72;;;;;;;16.29;100.00;95821.63;5005382;28;20046;-81
2023/07/04 00:26:02;;;;;;;10.90;5.40;;;;;;;16.34;100.00;95800.16;5003926;28;20033;-79
2023/07/04 00:28:28;;;;;;;8.77;5.32;;;;;;;16.10;100.00;95803.91;5004277;28;20507;-78
2023/07/04 00:30:54;;;;;;;5.80;5.30;;;;;;;16.17;100.00;95840.56;4989258;28;20038;-79
2023/07/04 00:33:22;;;;;;;5.95;5.47;;;;;;;16.17;100.00;95846.63;4988416;28;20031;-80
2023/07/04 00:35:48;;;;;;;6.38;5.88;;;;;;;16.12;100.00;95855.97;5004579;28;20031;-81
2023/07/04 00:38:16;;;;;;;6.38;5.05;;;;;;;16.16;100.00;95850.22;5003744;28;20026;-80
2023/07/04 00:40:44;;;;;;;7.00;6.30;;;;;;;16.24;100.00;95851.91;5005859;28;20022;-79
2023/07/04 00:43:12;;;;;;;6.15;5.47;;;;;;;16.10;100.00;95839.69;4986995;28;20638;-81
2023/07/04 00:45:42;;;;;;;9.43;5.32;;;;;;;16.21;100.00;95821.72;5004836;28;20054;-80
2023/07/04 00:48:13;;;;;;;7.22;5.80;;;;;;;16.25;100.00;95811.69;5003039;28;20034;-79
2023/07/04 00:50:45;;;;;;;6.50;5.68;;;;;;;16.32;100.00;95796.91;5004226;28;20030;-78
2023/07/04 00:53:12;;;;;;;8.02;6.00;;;;;;;16.23;100.00;95784.94;4989242;28;20037;-79
2023/07/04 00:55:40;;;;;;;7.00;5.78;;;;;;;16.14;100.00;95797.31;4987343;28;20080;-79
2023/07/04 00:58:06;;;;;;;10.27;5.90;;;;;;;16.15;100.00;95808.59;4989930;28;20026;-78
2023/07/04 01:00:32;;;;;;;6.03;5.05;;;;;;;16.14;100.00;95822.63;4988262;28;20026;-79
2023/07/04 01:02:59;;;;;;;6.88;5.70;;;;;;;16.15;100.00;95805.97;4988250;28;20026;-79
2023/07/04 01:05:57;;;;;;;8.38;5.28;;;;;;;16.12;100.00;95798.47;4988202;28;20105;-79
2023/07/04 01:08:25;;;;;;;6.13;5.55;;;;;;;16.07;100.00;95806.06;5003851;28;20514;-79
2023/07/04 01:10:51;;;;;;;6.20;5.53;;;;;;;16.03;100.00;95797.78;5004319;28;20049;-78
2023/07/04 01:13:43;;;;;;;5.82;5.32;;;;;;;16.03;100.00;95810.03;5003230;28;20061;-80
2023/07/04 01:16:11;;;;;;;6.15;5.75;;;;;;;15.96;100.00;95807.34;5003776;28;20125;-79
2023/07/04 01:18:38;;;;;;;8.40;6.15;;;;;;;15.98;100.00;95821.03;5003393;28;20026;-79
2023/07/04 01:21:05;;;;;;;6.78;6.07;;;;;;;16.00;100.00;95823.47;4988980;28;20329;-80
2023/07/04 01:23:58;;;;;;;6.05;5.63;;;;;;;15.97;100.00;95847.34;4987301;28;20561;-80
2023/07/04 01:26:46;;;;;;;6.70;6.07;;;;;;;15.86;100.00;95853.81;4987279;28;20407;-80
2023/07/04 01:29:14;;;;;;;6.50;5.90;;;;;;;15.83;100.00;95873.28;4989190;28;20127;-79
2023/07/04 01:31:43;;;;;;;6.38;5.88;;;;;;;15.80;100.00;95871.03;5003186;28;20034;-79
2023/07/04 01:34:10;;;;;;;6.88;6.28;;;;;;;15.92;100.00;95870.59;5003050;28;20483;-79
2023/07/04 01:36:38;;;;;;;8.35;6.28;;;;;;;15.92;100.00;95881.06;4987362;28;20029;-78
2023/07/04 01:39:08;;;;;;;6.03;5.63;;;;;;;15.95;100.00;95886.75;5002881;28;20034;-78
2023/07/04 01:41:34;;;;;;;7.30;5.97;;;;;;;15.92;100.00;95886.28;4987549;28;20033;-77
2023/07/04 01:44:05;;;;;;;6.63;5.60;;;;;;;15.90;100.00;95883.84;4987359;28;20032;-79
2023/07/04 01:46:32;;;;;;;7.30;6.70;;;;;;;15.86;100.00;95872.13;5003227;28;20037;-78
2023/07/04 01:48:58;;;;;;;6.57;6.07;;;;;;;15.89;100.00;95882.25;4987852;28;20073;-79
2023/07/04 01:51:28;;;;;;;8.88;6.25;;;;;;;15.83;100.00;95893.38;5002880;28;20034;-78
2023/07/04 01:53:53;;;;;;;7.07;6.38;;;;;;;15.79;100.00;95911.25;5003325;28;20416;-79
2023/07/04 01:56:19;;;;;;;7.30;6.55;;;;;;;15.83;100.00;95914.28;4985821;28;20121;-79
2023/07/04 01:58:44;;;;;;;9.45;6.80;;;;;;;15.71;100.00;95903.47;4988580;28;20027;-78
2023/07/04 02:01:10;;;;;;;6.30;5.70;;;;;;;15.67;100.00;95917.88;4985679;28;20117;-78
2023/07/04 02:03:36;;;;;;;7.40;6.68;;;;;;;15.62;100.00;95922.00;5003229;28;20042;-78
2023/07/04 02:06:02;;;;;;;6.70;6.13;;;;;;;15.48;100.00;95925.38;5002295;28;20435;-79
2023/07/04 02:08:27;;;;;;;6.97;6.47;;;;;;;15.47;100.00;95952.47;5002870;28;20085;-78
2023/07/04 02:10:53;;;;;;;7.47;6.60;;;;;;;15.39;100.00;95962.97;5002770;28;20022;-79
2023/07/04 02:13:18;;;;;;;6.82;6.28;;;;;;;15.43;100.00;95985.13;4986059;28;20022;-79
2023/07/04 02:15:45;;;;;;;7.35;6.75;;;;;;;15.41;100.00;95994.94;5002987;28;20057;-79
2023/07/04 02:18:10;;;;;;;9.55;6.65;;;;;;;15.48;100.00;96009.75;4985417;28;20026;-78
2023/07/04 02:20:36;;;;;;;6.72;6.22;;;;;;;15.55;100.00;95999.44;4988030;28;20073;-80
2023/07/04 02:23:01;;;;;;;7.30;6.60;;;;;;;15.55;100.00;95974.13;4986297;28;20026;-80
2023/07/04 02:25:27;;;;;;;8.30;6.68;;;;;;;15.53;100.00;95970.06;4987809;28;20030;-78
2023/07/04 02:27:52;;;;;;;8.10;7.13;;;;;;;15.57;100.00;95966.91;4987418;28;20109;-80
2023/07/04 02:30:18;;;;;;;10.80;6.85;;;;;;;15.41;100.00;95982.69;5002406;28;20045;-77
2023/07/04 02:32:43;;;;;;;8.70;7.30;;;;;;;15.37;100.00;95986.66;5002326;28;20037;-78
2023/07/04 02:35:09;;;;;;;7.38;6.68;;;;;;;15.44;100.00;95997.22;5002073;28;20031;-78
2023/07/04 02:37:34;;;;;;;8.13;7.38;;;;;;;15.51;100.00;95995.56;5002985;28;20022;-79
2023/07/04 02:40:00;;;;;;;7.80;6.93;;;;;;;15.52;100.00;95984.94;4986479;28;20407;-79
2023/07/04 02:42:25;;;;;;;8.32;7.45;;;;;;;15.42;100.00;95978.28;5003022;28;20061;-81
2023/07/04 02:44:51;;;;;;;7.60;6.85;;;;;;;15.47;100.00;95989.84;4986139;28;20089;-79
2023/07/04 02:47:18;;;;;;;8.35;7.72;;;;;;;15.45;100.00;95993.59;4986045;28;20030;-79
2023/07/04 02:49:43;;;;;;;8.77;7.90;;;;;;;15.50;100.00;95996.53;5001506;28;20459;-78
2023/07/04 02:52:09;;;;;;;8.15;7.35;;;;;;;15.55;100.00;95987.19;4986839;28;20065;-78
2023/07/04 02:54:35;;;;;;;9.63;7.50;;;;;;;15.66;100.00;95985.97;5002421;28;20022;-80
2023/07/04 02:57:01;;;;;;;10.15;7.50;;;;;;;15.62;100.00;95961.19;4986417;28;20138;-79
2023/07/04 02:59:27;;;;;;;8.05;7.28;;;;;;;15.61;100.00;95952.53;4986404;28;20494;-78
2023/07/04 03:01:53;;;;;;;7.70;7.03;;;;;;;15.69;100.00;95951.66;4986322;28;20541;-78
2023/07/04 03:04:19;;;;;;;8.23;7.00;;;;;;;15.62;100.00;95935.06;5002514;28;20409;-79
2023/07/04 03:06:45;;;;;;;7.10;6.60;;;;;;;15.54;100.00;95916.88;5001454;28;20117;-81
2023/07/04 03:09:10;;;;;;;8.05;7.03;;;;;;;15.63;100.00;95923.63;4987171;28;20125;-80
2023/07/04 03:11:36;;;;;;;12.18;7.45;;;;;;;15.60;100.00;95896.09;5002093;28;20039;-80
2023/07/04 03:14:01;;;;;;;8.63;7.65;;;;;;;15.67;100.00;95898.75;4986393;28;20027;-78
2023/07/04 03:16:27;;;;;;;8.50;7.80;;;;;;;15.73;100.00;95888.41;5002332;28;20026;-78
2023/07/04 03:18:53;;;;;;;8.13;7.53;;;;;;;15.66;100.00;95892.75;5000825;28;20074;-78
2023/07/04 03:21:20;;;;;;;11.20;10.13;;;;;;;15.70;100.00;95914.91;5002619;28;20254;-80
2023/07/04 03:23:46;;;;;;;11.55;10.65;;;;;;;15.67;100.00;95917.88;5000699;28;20030;-78
2023/07/04 03:26:11;;;;;;;9.80;7.82;;;;;;;15.73;100.00;95922.38;4985888;28;20080;-78
2023/07/04 03:28:37;;;;;;;8.18;7.47;;;;;;;15.86;100.00;95907.91;5001514;28;20030;-80
2023/07/04 03:31:03;;;;;;;8.77;7.88;;;;;;;15.92;100.00;95900.16;4985067;28;20038;-78
2023/07/04 03:33:28;;;;;;;8.68;7.88;;;;;;;16.06;100.00;95895.91;5002103;28;20507;-79
2023/07/04 03:35:53;;;;;;;8.32;7.18;;;;;;;17.25;100.00;95779.22;4984618;28;20034;-78
2023/07/04 03:38:19;;;;;;;6.30;5.70;;;;;;;18.63;100.00;95311.94;4987391;28;20519;-78
2023/07/04 03:40:45;;;;;;;5.28;4.68;;;;;;;19.31;100.00;95008.13;4986091;28;20511;-78
2023/07/04 03:43:11;;;;;;;4.78;4.38;;;;;;;19.89;100.00;94939.97;5002281;28;20446;-78
2023/07/04 03:45:36;;;;;;;4.93;4.53;;;;;;;20.28;100.00;94891.13;5001083;28;20050;-79
2023/07/04 03:48:02;;;;;;;22.13;5.47;;;;;;;20.63;100.00;94867.34;4986626;28;20053;-78
2023/07/04 03:50:28;;;;;;;14.75;5.18;;;;;;;20.99;100.00;94844.06;4985198;28;20032;-79
2023/07/04 03:52:53;;;;;;;5.57;4.97;;;;;;;21.48;100.00;94825.91;5001126;28;20019;-80
2023/07/04 03:55:19;;;;;;;6.28;4.75;;;;;;;21.64;100.00;94829.56;5002367;28;20122;-79
2023/07/04 03:57:47;;;;;;;4.82;4.53;;;;;;;21.60;100.00;94817.91;4985854;28;20042;-78
2023/07/04 04:00:13;;;;;;;4.83;4.17;;;;;;;22.29;100.00;94816.44;4987138;28;20034;-78
2023/07/04 04:02:38;;;;;;;4.97;4.50;;;;;;;22.16;100.00;94795.69;4986837;28;20026;-79
2023/07/04 04:05:04;;;;;;;7.65;4.43;;;;;;;22.51;100.00;94801.38;5005208;28;20030;-78
2023/07/04 04:07:29;;;;;;;5.97;4.50;;;;;;;22.85;100.00;94794.09;5004754;28;20029;-79
2023/07/04 04:09:55;;;;;;;7.50;4.03;;;;;;;23.00;100.00;94802.94;5004777;28;20436;-78
2023/07/04 04:12:21;;;;;;;6.55;3.97;;;;;;;23.52;100.00;94799.69;4990324;28;20034;-79
2023/07/04 04:14:46;;;;;;;5.00;4.38;;;;;;;23.81;100.00;94798.28;4989740;28;20037;-78
2023/07/04 04:17:13;;;;;;;7.10;4.82;;;;;;;23.99;100.00;94794.38;4990178;28;20026;-80
2023/07/04 04:19:38;;;;;;;6.95;3.95;;;;;;;24.03;100.00;94788.34;4988980;28;20026;-79
2023/07/04 04:22:04;;;;;;;5.30;4.72;;;;;;;23.69;100.00;94787.09;4988880;28;20420;-79
2023/07/04 04:24:29;;;;;;;8.50;4.55;;;;;;;23.70;100.00;94786.03;4989526;28;20483;-78
2023/07/04 04:26:57;;;;;;;4.90;4.40;;;;;;;24.70;100.00;94786.69;4989957;28;20506;-78
2023/07/04 04:29:24;;;;;;;5.40;4.93;;;;;;;24.62;100.00;94786.19;5004549;28;20023;-78
2023/07/04 04:31:49;;;;;;;5.30;4.78;;;;;;;24.73;100.00;94799.44;5004411;28;20112;-79
2023/07/04 04:34:20;;;;;;;4.55;4.07;;;;;;;25.17;100.00;94796.06;5004840;28;20038;-78
2023/07/04 04:36:46;;;;;;;5.68;4.50;;;;;;;25.40;100.00;94792.06;5003242;28;20022;-78
2023/07/04 04:39:12;;;;;;;5.07;4.57;;;;;;;25.74;100.00;94794.19;5004901;28;20045;-78
2023/07/04 04:41:37;;;;;;;5.03;4.45;;;;;;;25.99;100.00;94796.78;5003772;28;20089;-78
2023/07/04 04:44:04;;;;;;;4.80;4.40;;;;;;;26.29;100.00;94796.72;5004255;28;20034;-78
2023/07/04 04:46:31;;;;;;;4.63;4.22;;;;;;;26.49;100.00;94796.59;4989318;28;20472;-78
2023/07/04 04:48:58;;;;;;;4.85;4.45;;;;;;;26.41;100.00;94799.84;4987907;28;20031;-78
2023/07/04 04:51:24;;;;;;;;;;;;;;;27.15;100.00;94793.56;5004715;28;20049;-79
2023/07/04 04:53:49;;;;;;;4.53;4.18;;;;;;;27.27;100.00;94801.19;5003404;28;20464;-79
2023/07/04 04:56:15;;;;;;;5.68;4.35;;;;;;;27.53;99.57;94802.59;5004455;28;20026;-78
2023/07/04 04:58:43;;;;;;;5.93;4.15;;;;;;;27.56;99.73;94804.69;5003282;28;20027;-79
2023/07/04 05:01:22;;;;;;;4.50;4.05;;;;;;;28.13;96.53;94796.66;4989518;28;20026;-79
2023/07/04 05:03:53;;;;;;;4.03;3.70;;;;;;;28.70;92.80;94789.59;4988871;28;20034;-78
2023/07/04 05:06:23;;;;;;;3.92;3.70;;;;;;;28.46;91.85;94792.28;5003644;28;20190;-78
2023/07/04 05:08:49;;;;;;;3.85;3.55;;;;;;;29.54;83.43;94796.59;4989445;28;20586;-78
2023/07/04 05:11:16;;;;;;;3.85;3.50;;;;;;;29.38;80.76;94800.59;5003077;28;20030;-78
2023/07/04 05:13:42;;;;;;;4.13;3.73;;;;;;;30.05;73.85;94795.72;5004213;28;20385;-79
2023/07/04 05:16:13;;;;;;;4.18;3.55;;;;;;;30.63;72.41;94795.91;5002906;28;20315;-79
2023/07/04 05:18:39;;;;;;;3.80;3.58;;;;;;;30.48;76.02;94804.25;4989291;28;20022;-78
2023/07/04 05:21:07;;;;;;;3.90;3.70;;;;;;;30.46;73.12;94787.72;4988216;28;20049;-79
2023/07/04 05:23:34;;;;;;;4.53;4.13;;;;;;;30.64;74.12;94803.63;5003143;28;20038;-78
2023/07/04 05:26:07;;;;;;;3.88;3.53;;;;;;;31.62;66.08;94801.97;4989030;28;20029;-79
2023/07/04 05:28:33;;;;;;;4.32;3.92;;;;;;;31.80;66.61;94797.47;5002435;28;20225;-79
2023/07/04 05:31:00;;;;;;;6.87;3.73;;;;;;;32.82;61.29;94799.75;5004300;28;20030;-78
2023/07/04 05:33:26;;;;;;;5.60;3.55;;;;;;;33.40;60.07;94806.59;4985978;28;20431;-79
2023/07/04 05:35:51;;;;;;;6.27;3.90;;;;;;;33.11;56.10;94809.91;4987541;28;20034;-78
2023/07/04 05:38:17;;;;;;;3.67;3.37;;;;;;;33.40;57.11;94806.59;5002807;28;20022;-79
2023/07/04 05:40:43;;;;;;;4.10;3.70;;;;;;;33.24;57.27;94802.81;5003436;28;20104;-78
2023/07/04 05:43:08;;;;;;;4.07;3.77;;;;;;;34.46;53.74;94811.06;4987152;28;20031;-78
2023/07/04 05:45:34;;;;;;;3.73;3.50;;;;;;;35.57;49.82;94806.84;5002189;28;20058;-80
2023/07/04 05:47:59;;;;;;;3.87;3.57;;;;;;;36.04;48.52;94814.63;5003712;28;20411;-78
2023/07/04 05:50:25;;;;;;;3.83;3.53;;;;;;;35.96;49.47;94808.97;5002297;28;20034;-79
2023/07/04 05:52:50;;;;;;;7.23;3.70;;;;;;;35.60;49.75;94802.72;4988693;28;20113;-79
2023/07/04 05:55:16;;;;;;;4.27;3.63;;;;;;;36.39;47.98;94800.41;4987665;28;20520;-83
2023/07/04 05:57:41;;;;;;;4.20;3.90;;;;;;;35.96;48.38;94802.81;4988378;28;20109;-79
2023/07/04 06:00:10;;;;;;;4.07;3.73;;;;;;;36.76;45.87;94803.13;4986342;28;20109;-81
2023/07/04 06:02:35;;;;;;;4.63;3.80;;;;;;;37.09;44.84;94797.59;4987565;28;20550;-82
2023/07/04 06:05:01;;;;;;;4.40;4.00;;;;;;;37.45;43.45;94798.25;4988300;28;20077;-79
2023/07/04 06:07:30;;;;;;;3.78;3.58;;;;;;;36.90;45.83;94796.22;4986983;28;20372;-78
2023/07/04 06:09:56;;;;;;;4.13;3.67;;;;;;;36.21;46.59;94792.88;5003554;28;20030;-79
2023/07/04 06:12:21;;;;;;;4.22;3.78;;;;;;;36.88;46.33;94793.09;5002057;28;20061;-78
2023/07/04 06:14:47;;;;;;;4.67;3.70;;;;;;;38.34;44.35;94797.91;5002911;28;20062;-78
2023/07/04 06:17:12;;;;;;;3.77;3.37;;;;;;;38.14;44.01;94786.19;4987439;28;20480;-78
2023/07/04 06:19:38;;;;;;;3.83;3.43;;;;;;;38.48;42.73;94795.53;5002427;28;20077;-80
2023/07/04 06:22:06;;;;;;;3.97;3.73;;;;;;;38.54;42.54;94796.84;4988044;28;20054;-82
2023/07/04 06:24:31;;;;;;;4.80;4.25;;;;;;;38.16;42.36;94792.03;4986777;28;20508;-79
2023/07/04 06:26:57;;;;;;;4.32;3.97;;;;;;;37.83;42.40;94795.03;4987700;28;20158;-80
2023/07/04 06:29:23;;;;;;;4.93;4.38;;;;;;;36.93;43.17;94786.66;5001807;28;20049;-80
2023/07/04 06:31:49;;;;;;;4.95;4.43;;;;;;;34.36;48.50;94798.78;5003011;28;20443;-80
2023/07/04 06:34:14;;;;;;;4.78;4.30;;;;;;;31.60;60.69;94790.75;5001912;28;20103;-79
2023/07/04 06:36:40;;;;;;;8.73;5.53;;;;;;;31.24;65.75;94788.09;4986046;28;20022;-84
2023/07/04 06:39:06;;;;;;;4.40;4.00;;;;;;;31.17;67.04;94790.44;5002206;28;20068;-79
2023/07/04 06:41:31;;;;;;;6.00;3.95;;;;;;;31.32;67.53;94787.41;5002157;28;20101;-79
2023/07/04 06:43:57;;;;;;;4.32;3.92;;;;;;;31.61;63.40;94788.88;5002369;28;20076;-79
2023/07/04 06:46:24;;;;;;;4.30;3.90;;;;;;;34.77;52.19;94787.34;4986409;28;20061;-79
2023/07/04 06:48:51;;;;;;;5.63;4.13;;;;;;;36.38;49.00;94788.03;4987830;28;20034;-78
2023/07/04 06:51:18;;;;;;;9.32;4.55;;;;;;;37.27;45.80;94786.16;5001543;28;20088;-81
2023/07/04 06:53:44;;;;;;;5.22;4.60;;;;;;;35.52;47.66;94781.97;4986020;28;20491;-79
2023/07/04 06:56:19;;;;;;;5.75;4.28;;;;;;;32.97;55.38;94771.69;5001793;28;20089;-78
2023/07/04 06:58:54;;;;;;;4.60;4.30;;;;;;;31.99;59.85;94784.63;5001833;28;20038;-79
2023/07/04 07:01:22;;;;;;;4.82;4.20;;;;;;;31.53;64.57;94782.34;5002559;28;20041;-78
2023/07/04 07:03:51;;;;;;;;;;;;;;;29.85;72.90;94780.06;4986515;28;20034;-84
2023/07/04 07:06:16;;;;;;;4.60;4.18;;;;;;;31.26;67.77;94777.91;5002780;28;20321;-78
2023/07/04 07:08:42;;;;;;;5.00;4.22;;;;;;;31.65;64.93;94787.97;5001049;28;20109;-78
2023/07/04 07:11:15;;;;;;;4.25;3.80;;;;;;;32.62;66.65;94781.59;4987660;28;20376;-78
2023/07/04 07:13:41;;;;;;;4.38;3.92;;;;;;;36.09;53.23;94782.84;4986712;28;20018;-79
2023/07/04 07:16:16;;;;;;;7.03;5.05;;;;;;;30.92;64.91;94771.47;5001723;28;20106;-80
2023/07/04 07:18:43;;;;;;;5.55;4.30;;;;;;;31.05;70.16;94782.13;4987405;28;20037;-78
2023/07/04 07:21:10;;;;;;;4.68;4.32;;;;;;;30.83;70.73;94782.88;4986838;28;20066;-78
2023/07/04 07:23:36;;;;;;;4.75;4.38;;;;;;;30.70;74.32;94785.59;5002504;28;20034;-78
2023/07/04 07:26:04;;;;;;;5.03;4.60;;;;;;;30.51;76.08;94783.03;5000894;28;20407;-81
2023/07/04 07:28:33;;;;;;;4.80;4.40;;;;;;;30.46;79.57;94777.81;5002292;28;20492;-78
2023/07/04 07:31:09;;;;;;;5.47;4.97;;;;;;;30.51;78.69;94779.56;5001349;28;20054;-78
2023/07/04 07:33:36;;;;;;;5.85;5.35;;;;;;;30.21;74.71;94776.41;5001503;28;20073;-78
2023/07/04 07:36:18;;;;;;;5.50;5.00;;;;;;;30.49;80.41;94777.22;4987375;28;20069;-78
2023/07/04 07:38:43;;;;;;;7.00;5.95;;;;;;;29.56;76.91;94781.09;4989840;28;20474;-81
2023/07/04 07:41:09;;;;;;;5.55;5.05;;;;;;;29.77;81.07;94784.97;4991197;28;20058;-77
2023/07/04 07:43:37;;;;;;;7.60;5.30;;;;;;;30.36;76.37;94772.66;5004860;28;20034;-78
2023/07/04 07:46:16;;;;;;;6.43;5.93;;;;;;;30.12;78.79;94772.03;5005283;28;20061;-78
2023/07/04 07:48:42;;;;;;;7.03;6.53;;;;;;;30.04;77.10;94783.44;5005567;28;20046;-78
2023/07/04 07:51:09;;;;;;;8.15;7.60;;;;;;;29.29;76.81;94773.78;4989619;28;20037;-79
2023/07/04 07:53:36;;;;;;;8.77;7.97;;;;;;;28.56;80.80;94772.69;5006019;28;20117;-79
2023/07/04 07:56:03;;;;;;;9.30;7.63;;;;;;;29.87;81.42;94784.03;5004519;28;20030;-78
2023/07/04 07:58:29;;;;;;;7.82;7.22;;;;;;;29.55;78.28;94781.34;5006179;28;20402;-78
2023/07/04 08:00:55;;;;;;;9.98;7.10;;;;;;;29.57;76.64;94782.66;4989456;28;20026;-83
2023/07/04 08:03:20;;;;;;;8.00;7.40;;;;;;;29.83;77.25;94776.91;4988839;28;20479;-83
2023/07/04 08:05:45;;;;;;;8.73;8.13;;;;;;;29.78;78.69;94780.41;5005268;28;20430;-81
2023/07/04 08:08:11;;;;;;;7.53;6.95;;;;;;;28.43;94.52;94776.84;5004892;28;20026;-79
2023/07/04 08:10:39;;;;;;;8.20;7.57;;;;;;;28.90;90.63;94785.88;5005728;28;20034;-78
2023/07/04 08:13:04;;;;;;;8.23;7.57;;;;;;;30.28;85.78;94784.03;5004248;28;20041;-78
2023/07/04 08:15:30;;;;;;;8.07;7.18;;;;;;;30.23;82.50;94778.78;4989196;28;20030;-78
2023/07/04 08:17:55;;;;;;;9.68;6.93;;;;;;;29.98;81.93;94779.28;4987776;28;20088;-79
2023/07/04 08:20:24;;;;;;;7.03;6.53;;;;;;;29.97;81.74;94777.69;4988622;28;20030;-78
2023/07/04 08:22:49;;;;;;;6.28;5.88;;;;;;;30.10;81.40;94766.22;4989857;28;20050;-78
2023/07/04 08:25:15;;;;;;;7.55;6.95;;;;;;;30.53;80.89;94774.75;5004517;28;20507;-78
2023/07/04 08:27:40;;;;;;;7.05;6.40;;;;;;;30.46;82.92;94777.81;5005080;28;20025;-82
2023/07/04 08:30:06;;;;;;;6.82;6.32;;;;;;;30.40;85.22;94768.31;4987266;28;20037;-85
2023/07/04 08:32:33;;;;;;;7.45;6.88;;;;;;;30.42;83.74;94768.81;4988957;28;20037;-78
2023/07/04 08:34:59;;;;;;;7.32;6.72;;;;;;;30.46;84.64;94772.47;4988829;28;20487;-79
2023/07/04 08:37:25;;;;;;;7.05;6.45;;;;;;;30.64;84.72;94770.75;4989785;28;20042;-79
2023/07/04 08:39:51;;;;;;;7.15;6.55;;;;;;;30.90;85.11;94768.28;4988926;28;20399;-79
2023/07/04 08:42:17;;;;;;;7.25;6.65;;;;;;;30.79;88.87;94765.06;5004345;28;20022;-80
2023/07/04 08:44:45;;;;;;;7.65;7.15;;;;;;;30.22;87.41;94769.19;5004266;28;20522;-78
2023/07/04 08:47:14;;;;;;;8.23;7.00;;;;;;;30.19;86.75;94759.09;5003679;28;20097;-79
2023/07/04 08:49:48;;;;;;;7.50;6.90;;;;;;;30.42;88.87;94762.66;5004238;28;20081;-82
2023/07/04 08:52:29;;;;;;;7.45;6.95;;;;;;;30.63;84.89;94756.56;4988033;28;20034;-80
2023/07/04 08:54:54;;;;;;;7.10;6.50;;;;;;;30.66;89.55;94758.66;4989975;28;20046;-80
2023/07/04 08:57:37;;;;;;;7.13;6.63;;;;;;;30.42;87.18;94760.78;5003754;28;20053;-79
2023/07/04 09:00:09;;;;;;;8.18;6.93;;;;;;;30.69;89.15;94749.25;5003902;28;20033;-78
2023/07/04 09:02:56;;;;;;;6.90;6.40;;;;;;;30.72;90.32;94745.97;5004678;28;20030;-79
2023/07/04 09:05:41;;;;;;;7.32;6.93;;;;;;;31.01;92.89;94742.91;4987846;28;20491;-83
2023/07/04 09:08:18;;;;;;;7.13;6.50;;;;;;;30.80;91.04;94745.22;4989319;28;20054;-79
2023/07/04 09:10:52;;;;;;;7.87;7.17;;;;;;;30.64;85.42;94742.09;5004299;28;20034;-81
2023/07/04 09:13:27;;;;;;;8.73;7.32;;;;;;;30.76;86.19;94741.59;5002319;28;20038;-82
2023/07/04 09:15:54;;;;;;;8.23;7.63;;;;;;;30.64;82.84;94744.78;5004407;28;20496;-80
2023/07/04 09:18:45;;;;;;;7.90;7.20;;;;;;;30.15;85.38;94726.81;5002835;28;20041;-86
2023/07/04 09:21:16;;;;;;;8.35;7.55;;;;;;;30.70;89.32;94742.78;4989191;28;20034;-80
2023/07/04 09:23:43;;;;;;;8.00;7.28;;;;;;;30.38;83.67;94745.59;4988763;28;20423;-83
2023/07/04 09:26:10;;;;;;;8.02;7.47;;;;;;;30.29;84.67;94734.81;5003141;28;20058;-84
2023/07/04 09:28:39;;;;;;;7.68;7.07;;;;;;;30.36;84.89;94734.41;5004100;28;20034;-79
2023/07/04 09:31:20;;;;;;;7.90;7.25;;;;;;;30.26;86.32;94735.41;5002572;28;20019;-80
2023/07/04 09:33:48;;;;;;;8.65;7.85;;;;;;;30.09;83.64;94729.88;5003997;28;20026;-80
2023/07/04 09:36:16;;;;;;;10.70;8.25;;;;;;;29.99;82.16;94730.88;4988202;28;20484;-79
2023/07/04 09:38:55;;;;;;;7.95;7.15;;;;;;;30.14;80.43;94725.25;4986794;28;20045;-82
2023/07/04 09:41:25;;;;;;;8.20;7.50;;;;;;;30.87;79.03;94726.06;4987306;28;20038;-79
2023/07/04 09:43:54;;;;;;;8.10;7.45;;;;;;;31.32;79.40;94733.03;5002205;28;20167;-79
2023/07/04 09:46:29;;;;;;;8.73;8.00;;;;;;;30.61;78.68;94723.97;5003845;28;20492;-80
2023/07/04 09:49:15;;;;;;;8.00;7.40;;;;;;;30.84;73.99;94725.59;5002553;28;20415;-80
2023/07/04 09:51:41;;;;;;;7.60;7.10;;;;;;;30.84;74.60;94728.28;4986566;28;20041;-80
2023/07/04 09:54:09;;;;;;;7.68;7.18;;;;;;;30.84;71.99;94720.25;5003441;28;20030;-80
2023/07/04 09:56:36;;;;;;;8.25;7.65;;;;;;;31.29;76.96;94720.25;4987288;28;20553;-79
2023/07/04 09:59:26;;;;;;;8.43;7.63;;;;;;;30.56;71.99;94724.09;4988816;28;20030;-82
2023/07/04 10:01:54;;;;;;;7.82;7.30;;;;;;;30.04;72.33;94727.31;5002134;28;20050;-80
2023/07/04 10:04:33;;;;;;;7.57;6.70;;;;;;;30.76;69.95;94714.84;5003244;28;20037;-82
2023/07/04 10:06:59;;;;;;;7.68;7.07;;;;;;;31.07;73.45;94714.94;4986753;28;20221;-83
2023/07/04 10:09:25;;;;;;;7.88;7.28;;;;;;;31.04;69.05;94716.34;4985931;28;20076;-79
2023/07/04 10:12:10;;;;;;;7.55;6.68;;;;;;;30.99;67.69;94712.97;5003289;28;20084;-79
2023/07/04 10:14:37;;;;;;;8.25;7.75;;;;;;;30.69;67.35;94709.91;5001719;28;20026;-81
2023/07/04 10:17:20;;;;;;;8.27;7.30;;;;;;;29.89;68.12;94699.03;5003124;28;20030;-83
2023/07/04 10:19:49;;;;;;;8.20;7.65;;;;;;;30.10;70.94;94702.06;4986101;28;20030;-82
2023/07/04 10:22:33;;;;;;;7.35;6.82;;;;;;;29.96;69.51;94701.31;5002322;28;20042;-79
2023/07/04 10:24:59;;;;;;;6.70;6.10;;;;;;;30.12;65.49;94695.34;5003212;28;20034;-80
2023/07/04 10:27:31;;;;;;;6.10;5.70;;;;;;;30.42;66.24;94685.91;5001648;28;20053;-79
2023/07/04 10:29:59;;;;;;;6.18;5.68;;;;;;;30.75;61.60;94695.31;5003102;28;20475;-80
2023/07/04 10:32:25;;;;;;;5.75;5.35;;;;;;;30.56;59.14;94694.69;5002091;28;20117;-83
2023/07/04 10:34:51;;;;;;;5.75;5.32;;;;;;;30.98;59.28;94685.44;5002204;28;20037;-80
2023/07/04 10:37:27;;;;;;;6.22;5.82;;;;;;;31.15;61.90;94685.53;5002792;28;20027;-80
2023/07/04 10:39:57;;;;;;;6.97;6.38;;;;;;;30.98;62.21;94685.44;4984939;28;20018;-80
2023/07/04 10:42:44;;;;;;;6.43;5.85;;;;;;;31.05;66.28;94690.34;5003044;28;20030;-81
2023/07/04 10:45:13;;;;;;;6.30;5.90;;;;;;;30.66;64.21;94691.78;5001335;28;20104;-80
2023/07/04 10:47:39;;;;;;;6.45;6.05;;;;;;;30.23;57.53;94688.69;5002225;28;20063;-83
2023/07/04 10:50:10;;;;;;;6.22;5.82;;;;;;;30.28;58.95;94688.56;5002292;28;20026;-80
2023/07/04 10:52:36;;;;;;;6.78;6.28;;;;;;;30.20;64.02;94680.47;5001953;28;20104;-87
2023/07/04 10:55:03;;;;;;;7.65;6.95;;;;;;;29.85;64.51;94684.69;5002522;28;20438;-81
2023/07/04 10:57:38;;;;;;;15.82;7.63;;;;;;;29.81;62.44;94671.09;5001371;28;20113;-79
2023/07/04 11:00:27;;;;;;;7.82;6.00;;;;;;;30.38;68.07;94682.22;4986244;28;20045;-78
2023/07/04 11:03:00;;;;;;;6.47;6.07;;;;;;;30.87;65.58;94672.56;5001695;28;20022;-79
2023/07/04 11:05:40;;;;;;;7.13;5.78;;;;;;;30.44;61.71;94669.56;5001712;28;20030;-84
2023/07/04 11:08:17;;;;;;;6.05;5.65;;;;;;;29.46;62.08;94665.66;4986065;28;20130;-79
2023/07/04 11:10:45;;;;;;;6.10;5.70;;;;;;;30.28;59.54;94659.16;5001199;28;20060;-79
2023/07/04 11:13:19;;;;;;;6.28;5.78;;;;;;;30.65;62.15;94651.94;5006239;28;20031;-81
2023/07/04 11:15:53;;;;;;;6.75;6.25;;;;;;;29.99;64.74;94666.75;4989118;28;20399;-80
2023/07/04 11:18:24;;;;;;;6.68;6.18;;;;;;;30.58;65.59;94657.72;5005898;28;20037;-80
2023/07/04 11:21:14;;;;;;;6.32;5.82;;;;;;;30.78;62.94;94659.13;4991403;28;20018;-80
2023/07/04 11:23:51;;;;;;;6.45;5.57;;;;;;;29.90;58.18;94662.41;5004979;28;20041;-83
2023/07/04 11:26:19;;;;;;;6.30;5.70;;;;;;;29.71;62.39;94654.47;4991548;28;20026;-80
2023/07/04 11:29:04;;;;;;;5.83;5.33;;;;;;;30.38;59.29;94642.09;5005761;28;20049;-80
2023/07/04 11:31:30;;;;;;;6.30;5.80;;;;;;;30.21;58.93;94637.38;4990321;28;20041;-81
2023/07/04 11:33:56;;;;;;;6.15;5.75;;;;;;;30.49;56.94;94627.44;5006183;28;20427;-83
2023/07/04 11:36:26;;;;;;;5.93;5.45;;;;;;;30.66;56.82;94646.31;4989927;28;20033;-80